Arlington, Minnesota
Current Conditions -  °F | °C
As of 5:34 PM on Monday 20 Oct 2014 (Local Time) from KGYL Reporting Station
Clear Clear  
Wind Chill: 64°   Ceiling: Unl
Heat Index: 64°   Visibility: 10mi
Dew Point: 41°   Wind: 9mph
Humidity: 44%   Direction: 350°N
Pressure: 30"   Gusts: NA
Location:  44.61°N, 94.08°W
Report Text: KGYL 202234Z AUTO 35008KT 10SM CLR 18/05 A3000 RMK AO2 T01750051
Loading
Personal Weather Stations






























Interactive Weather Map
Tropical Storm Tracking
New forecast layout! Learn more

10-Day Weather Forecast

Advertisements
Track Severe Weather on mobile